createdAt,value
2023-01-25T00:00:01.421Z,3.66
2023-01-25T00:05:00.669Z,3.66
2023-01-25T00:10:00.825Z,3.66
2023-01-25T00:15:00.926Z,3.66
2023-01-25T00:20:00.791Z,3.66
2023-01-25T00:25:00.641Z,3.66
2023-01-25T00:30:01.016Z,3.66
2023-01-25T00:35:00.670Z,3.66
2023-01-25T00:40:00.734Z,3.66
2023-01-25T00:45:00.789Z,3.66
2023-01-25T00:50:00.728Z,3.66
2023-01-25T00:55:00.739Z,3.51
2023-01-25T01:00:01.057Z,3.51
2023-01-25T01:05:00.719Z,3.51
2023-01-25T01:10:00.738Z,3.51
2023-01-25T01:15:00.769Z,3.51
2023-01-25T01:20:00.733Z,3.51
2023-01-25T01:25:00.655Z,3.51
2023-01-25T01:30:01.060Z,3.51
2023-01-25T01:35:00.679Z,3.51
2023-01-25T01:40:00.965Z,3.51
2023-01-25T01:45:00.996Z,3.51
2023-01-25T01:50:00.699Z,3.51
2023-01-25T01:55:00.730Z,3.85
2023-01-25T02:00:01.098Z,3.85
2023-01-25T02:05:00.646Z,3.85
2023-01-25T02:10:00.724Z,3.85
2023-01-25T02:15:00.825Z,3.85
2023-01-25T02:20:00.662Z,3.85
2023-01-25T02:25:00.735Z,3.85
2023-01-25T02:30:00.889Z,3.79
2023-01-25T02:35:00.641Z,3.79
2023-01-25T02:40:00.692Z,3.79
2023-01-25T02:45:00.777Z,3.69
2023-01-25T02:50:00.732Z,3.69
2023-01-25T02:55:00.648Z,3.69
2023-01-25T03:00:00.920Z,3.69
2023-01-25T03:05:00.661Z,3.43
2023-01-25T03:10:00.783Z,3.43
2023-01-25T03:15:01.085Z,3.43
2023-01-25T03:20:00.791Z,3.43
2023-01-25T03:25:00.688Z,3.43
2023-01-25T03:30:02.200Z,3.48
2023-01-25T03:35:00.757Z,3.48
2023-01-25T03:40:00.887Z,3.66
2023-01-25T03:45:00.969Z,3.66
2023-01-25T03:50:00.702Z,3.64
2023-01-25T03:55:00.667Z,3.64
2023-01-25T04:00:01.195Z,3.64
2023-01-25T04:10:01.211Z,3.64
2023-01-25T04:15:00.320Z,3.64
2023-01-25T04:20:00.339Z,3.64
2023-01-25T04:25:00.459Z,3.82
2023-01-25T04:30:00.309Z,3.82
2023-01-25T04:35:00.412Z,3.68
2023-01-25T04:40:00.392Z,3.64
2023-01-25T04:45:00.321Z,3.64
2023-01-25T04:50:00.296Z,3.64
2023-01-25T04:55:00.877Z,3.64
2023-01-25T05:00:00.336Z,3.64
2023-01-25T05:05:00.428Z,3.64
2023-01-25T05:10:00.598Z,3.64
2023-01-25T05:15:00.347Z,3.64
2023-01-25T05:20:00.302Z,3.64
2023-01-25T05:25:01.281Z,3.64
2023-01-25T05:30:00.332Z,3.64
2023-01-25T05:35:01.056Z,3.64
2023-01-25T05:40:00.408Z,3.48
2023-01-25T05:45:00.361Z,3.48
2023-01-25T05:50:00.665Z,3.48
2023-01-25T05:55:00.540Z,3.48
2023-01-25T06:00:00.551Z,3.48
2023-01-25T06:05:00.310Z,3.48
2023-01-25T06:10:00.538Z,3.48
2023-01-25T06:15:00.335Z,3.48
2023-01-25T06:20:00.593Z,3.48
2023-01-25T06:25:01.386Z,3.48
2023-01-25T06:30:00.313Z,3.75
2023-01-25T06:35:00.398Z,3.75
2023-01-25T06:40:01.657Z,3.75
2023-01-25T06:45:00.294Z,3.75
2023-01-25T06:50:01.561Z,3.75
2023-01-25T06:55:00.464Z,3.75
2023-01-25T07:00:00.661Z,3.75
2023-01-25T07:05:00.331Z,3.75
2023-01-25T07:10:00.542Z,3.7
2023-01-25T07:15:00.345Z,3.7
2023-01-25T07:20:00.440Z,3.7
2023-01-25T07:25:00.561Z,3.78
2023-01-25T07:30:00.314Z,3.78
2023-01-25T07:35:00.338Z,3.78
2023-01-25T07:40:00.497Z,3.78
2023-01-25T07:45:00.319Z,3.78
2023-01-25T07:50:00.386Z,3.78
2023-01-25T07:55:00.598Z,3.78
2023-01-25T08:00:00.302Z,3.78
2023-01-25T08:05:01.464Z,3.78
2023-01-25T08:10:00.728Z,3.78
2023-01-25T08:15:00.374Z,3.86
2023-01-25T08:20:00.288Z,3.86
2023-01-25T08:25:00.548Z,4.23
2023-01-25T08:30:00.288Z,4.23
2023-01-25T08:35:00.456Z,4.23
2023-01-25T08:40:01.098Z,3.7
2023-01-25T08:45:00.396Z,3.7
2023-01-25T08:50:00.353Z,3.7
2023-01-25T08:55:00.739Z,3.7
2023-01-25T09:00:00.334Z,3.7
2023-01-25T09:05:00.437Z,3.7
2023-01-25T09:10:00.641Z,3.7
2023-01-25T09:15:00.349Z,4
2023-01-25T09:20:00.351Z,4
2023-01-25T09:25:00.516Z,3.9
2023-01-25T09:30:16.679Z,3.9
2023-01-25T09:35:00.442Z,3.9
2023-01-25T09:40:01.154Z,3.9
2023-01-25T09:45:00.347Z,3.89
2023-01-25T09:50:00.363Z,3.89
2023-01-25T09:55:01.281Z,3.89
2023-01-25T10:00:01.214Z,3.89
2023-01-25T10:05:00.453Z,3.89
2023-01-25T10:10:00.642Z,3.83
2023-01-25T10:15:00.447Z,3.93
2023-01-25T10:20:00.338Z,3.93
2023-01-25T10:25:01.968Z,3.93
2023-01-25T10:30:00.341Z,3.93
2023-01-25T10:35:00.417Z,3.93
2023-01-25T10:40:00.585Z,4.11
2023-01-25T10:45:00.337Z,4.11
2023-01-25T10:50:00.434Z,4.11
2023-01-25T10:55:00.902Z,4.11
2023-01-25T11:00:00.356Z,4.11
2023-01-25T11:05:00.379Z,4.11
2023-01-25T11:10:01.240Z,4.23
2023-01-25T11:15:00.342Z,4.23
2023-01-25T11:20:00.425Z,4.23
2023-01-25T11:25:01.463Z,4.23
2023-01-25T11:30:01.362Z,4.23
2023-01-25T11:35:00.469Z,4.34
2023-01-25T11:40:00.986Z,4.34
2023-01-25T11:45:00.313Z,4.34
2023-01-25T11:50:00.323Z,4.34
2023-01-25T11:55:00.662Z,4.37
2023-01-25T12:00:00.296Z,4.41
2023-01-25T12:05:06.346Z,4.27
2023-01-25T12:10:00.642Z,4.27
2023-01-25T12:15:00.397Z,4.27
2023-01-25T12:20:00.295Z,4.07
2023-01-25T12:25:01.320Z,4.07
2023-01-25T12:30:00.296Z,4.07
2023-01-25T12:35:00.389Z,4.01
2023-01-25T12:40:00.780Z,4.01
2023-01-25T12:45:00.324Z,4.01
2023-01-25T12:50:00.586Z,4.01
2023-01-25T12:55:00.641Z,3.96
2023-01-25T13:00:00.442Z,3.96
2023-01-25T13:05:00.292Z,4.11
2023-01-25T13:10:00.430Z,4.11
2023-01-25T13:15:00.336Z,4.11
2023-01-25T13:20:00.352Z,4.11
2023-01-25T13:25:01.001Z,4.1
2023-01-25T13:30:00.497Z,4.1
2023-01-25T13:35:00.366Z,4.1
2023-01-25T13:40:06.526Z,4.1
2023-01-25T13:45:00.366Z,4.16
2023-01-25T13:50:01.428Z,4.16
2023-01-25T13:55:01.349Z,4.16
2023-01-25T14:00:09.947Z,4.16
2023-01-25T14:05:00.428Z,3.76
2023-01-25T14:10:00.400Z,3.76
2023-01-25T14:15:00.379Z,3.76
2023-01-25T14:20:00.360Z,3.76
2023-01-25T14:25:00.572Z,3.76
2023-01-25T14:30:00.465Z,3.97
2023-01-25T14:35:00.427Z,3.97
2023-01-25T14:40:00.529Z,4.13
2023-01-25T14:45:00.293Z,4.13
2023-01-25T14:50:00.336Z,4.13
2023-01-25T14:55:00.856Z,4.01
2023-01-25T15:00:00.336Z,4.01
2023-01-25T15:05:04.905Z,4.01
2023-01-25T15:10:00.443Z,4.01
2023-01-25T15:15:01.371Z,4.01
2023-01-25T15:20:00.318Z,4.01
2023-01-25T15:25:03.216Z,4.01
2023-01-25T15:30:00.355Z,4.01
2023-01-25T15:35:00.382Z,4.16
2023-01-25T15:40:00.673Z,4.16
2023-01-25T15:45:00.349Z,4.16
2023-01-25T15:50:00.440Z,4.16
2023-01-25T15:55:02.139Z,3.64
2023-01-25T16:00:02.168Z,3.64
2023-01-25T16:05:00.526Z,3.64
2023-01-25T16:10:00.603Z,3.64
2023-01-25T16:15:00.644Z,3.64
2023-01-25T16:20:01.552Z,3.64
2023-01-25T16:25:00.431Z,3.48
2023-01-25T16:30:01.458Z,3.51
2023-01-25T16:35:00.453Z,3.51
2023-01-25T16:40:00.410Z,4.01
2023-01-25T16:45:00.354Z,4.01
2023-01-25T16:50:00.387Z,4.01
2023-01-25T16:55:01.558Z,3.52
2023-01-25T17:00:02.882Z,3.52
2023-01-25T17:05:00.488Z,3.52
2023-01-25T17:10:00.425Z,3.52
2023-01-25T17:15:00.402Z,3.32
2023-01-25T17:20:00.809Z,3.43
2023-01-25T17:25:00.483Z,3.43
2023-01-25T17:30:00.598Z,3.43
2023-01-25T17:35:00.518Z,3.43
2023-01-25T17:40:00.418Z,3.34
2023-01-25T17:45:00.425Z,3.34
2023-01-25T17:50:00.456Z,3.34
2023-01-25T17:55:00.612Z,3.34
2023-01-25T18:00:00.332Z,3.27
2023-01-25T18:05:00.411Z,3.27
2023-01-25T18:10:00.492Z,3.27
2023-01-25T18:15:00.376Z,3.27
2023-01-25T18:20:00.477Z,3.55
2023-01-25T18:25:00.603Z,3.55
2023-01-25T18:30:00.327Z,3.55
2023-01-25T18:35:00.450Z,3.24
2023-01-25T18:40:01.349Z,3.24
2023-01-25T18:45:00.320Z,3.24
2023-01-25T18:50:00.434Z,3.24
2023-01-25T18:55:00.584Z,3.24
2023-01-25T19:00:00.469Z,3.24
2023-01-25T19:05:00.502Z,3.35
2023-01-25T19:10:00.415Z,3.35
2023-01-25T19:15:00.372Z,3.43
2023-01-25T19:20:00.473Z,3.37
2023-01-25T19:25:00.732Z,3.37
2023-01-25T19:30:00.311Z,3.37
2023-01-25T19:35:00.490Z,3.37
2023-01-25T19:40:00.931Z,3.37
2023-01-25T19:45:00.333Z,3.37
2023-01-25T19:50:00.876Z,3.37
2023-01-25T19:55:00.496Z,3.15
2023-01-25T20:00:00.645Z,3.15
2023-01-25T20:05:00.390Z,3.15
2023-01-25T20:10:00.543Z,3.1
2023-01-25T20:15:00.321Z,3.1
2023-01-25T20:20:00.624Z,3.1
2023-01-25T20:25:01.325Z,3.1
2023-01-25T20:30:00.291Z,3.1
2023-01-25T20:35:00.448Z,3.1
2023-01-25T20:40:00.591Z,3.35
2023-01-25T20:45:00.296Z,3.35
2023-01-25T20:50:00.700Z,3.35
2023-01-25T20:55:00.504Z,3.35
2023-01-25T21:00:00.493Z,3.35
2023-01-25T21:05:00.404Z,3.35
2023-01-25T21:10:00.405Z,2.99
2023-01-25T21:15:00.730Z,2.99
2023-01-25T21:20:00.330Z,2.99
2023-01-25T21:25:00.515Z,3.17
2023-01-25T21:30:00.347Z,3.17
2023-01-25T21:35:00.459Z,3.02
2023-01-25T21:40:01.547Z,3.02
2023-01-25T21:45:00.343Z,3.02
2023-01-25T21:50:00.446Z,3.02
2023-01-25T21:55:00.600Z,3.02
2023-01-25T22:00:00.326Z,2.99
2023-01-25T22:05:00.663Z,2.71
2023-01-25T22:10:00.512Z,2.71
2023-01-25T22:15:00.825Z,2.71
2023-01-25T22:20:00.330Z,2.71
2023-01-25T22:25:00.523Z,2.71
2023-01-25T22:30:00.291Z,2.71
2023-01-25T22:40:00.599Z,2.71
2023-01-25T22:45:00.397Z,2.71
2023-01-25T22:50:00.480Z,2.93
2023-01-25T22:55:00.687Z,2.93
2023-01-25T23:00:00.505Z,2.92
2023-01-25T23:05:00.541Z,2.92
2023-01-25T23:10:00.921Z,2.92
2023-01-25T23:15:00.652Z,2.51
2023-01-25T23:20:00.570Z,2.51
2023-01-25T23:25:00.599Z,2.51
2023-01-25T23:30:00.400Z,2.51
2023-01-25T23:35:00.779Z,2.51
2023-01-25T23:40:01.746Z,2.73
2023-01-25T23:45:00.413Z,2.73
2023-01-25T23:50:00.560Z,2.73
2023-01-25T23:55:01.410Z,2.6
